Погода Манагуана неделю

Манагуа, Никарагуа

21 - 27 февраля
  • 21февраля
    Сегодня
    +19°
    +34°
    Ясно и безоблачно
    ВремяПогодаТемператураВлажностьДавлениеВетер, м/сВероятность осадков
    00:00Ясно и безоблачно+26°C44 %758 мм4.7 м/с2 %
    03:00Ясно и безоблачно+24°C48 %757 мм3.1 м/с2 %
    06:00Ясно и безоблачно+23°C54 %757 мм2.6 м/с2 %
    09:00Ясно и безоблачно+28°C49 %758 мм5.1 м/с2 %
    12:00Ясно и безоблачно+33°C37 %757 мм6.7 м/с2 %
    15:00Ясно и безоблачно+34°C32 %754 мм7.2 м/с2 %
    18:00Ясно и безоблачно+31°C39 %755 мм5.8 м/с2 %
    21:00Ясно и безоблачно+27°C45 %757 мм5.1 м/с2 %
  • 22февраля
    Четверг
    +20°
    +33°
    Ясно и безоблачно
    ВремяПогодаТемператураВлажностьДавлениеВетер, м/сВероятность осадков
    00:00Ясно и безоблачно+24°C51 %758 мм4.5 м/с2 %
    03:00Ясно и безоблачно+21°C61 %757 мм3.2 м/с2 %
    06:00Ясно и безоблачно+20°C71 %757 мм2.5 м/с2 %
    09:00Ясно и безоблачно+25°C57 %758 мм5.0 м/с2 %
    12:00Ясно и безоблачно+31°C27 %755 мм6.7 м/с2 %
    15:00Ясно и безоблачно+32°C24 %753 мм7.1 м/с2 %
    18:00Ясно и безоблачно+29°C36 %753 мм5.5 м/с2 %
    21:00Ясно и безоблачно+26°C49 %755 мм4.5 м/с2 %
  • 23февраля
    Пятница
    +20°
    +32°
    Ясно и безоблачно
    ВремяПогодаТемператураВлажностьДавлениеВетер, м/сВероятность осадков
    00:00Ясно и безоблачно+23°C64 %755 мм4.1 м/с2 %
    03:00Ясно и безоблачно+21°C68 %754 мм2.8 м/с2 %
    06:00Ясно и безоблачно+20°C74 %755 мм2.2 м/с2 %
    09:00Ясно и безоблачно+26°C52 %756 мм4.7 м/с2 %
    12:00Ясно и безоблачно+31°C31 %754 мм5.4 м/с2 %
    15:00Ясно и безоблачно+32°C27 %752 мм5.5 м/с2 %
    18:00Ясно и безоблачно+29°C41 %752 мм3.6 м/с2 %
    21:00Ясно и безоблачно+26°C59 %755 мм2.5 м/с2 %
  • 24февраля
    Суббота
    +20°
    +34°
    Ясно и безоблачно
    ВремяПогодаТемператураВлажностьДавлениеВетер, м/сВероятность осадков
    00:00Ясно и безоблачно+24°C66 %755 мм3.3 м/с2 %
    03:00Практически безоблачно+22°C67 %755 мм1.8 м/с2 %
    06:00Практически безоблачно+20°C74 %756 мм1.2 м/с2 %
    09:00Практически безоблачно+27°C54 %757 мм4.6 м/с2 %
    12:00Ясно и безоблачно+33°C38 %756 мм5.8 м/с2 %
    15:00Ясно и безоблачно+33°C31 %753 мм7.0 м/с2 %
    18:00Ясно и безоблачно+30°C40 %754 мм5.0 м/с2 %
    21:00Ясно и безоблачно+27°C43 %757 мм4.9 м/с2 %
Мы используем cookies
Соглашаюсь